x

West Point, Wa (wpow1) Weather Station

11:00am - Thu 27th Apr 2017 All times are PDT. -7 hours from GMT.

  • Wind
    3mph, 5mph gusts
  • Air Temp 48°f
  • Sea Pressure 1018.8mb
  • West Point, Wa
  • West Point, Wa

More Historic Weather Station data

Upgrade to MSW Pro to gain access to the past 30 days of data for over 8000 Wavebouys and Weather Stations around the globe.

Join Pro

Comparision Forecast

View Surf forecast
   
Thu 04/27 11:00am 3 5 mph 1018.8mb 48f
10:00am 5 6 mph 1018.7mb 47f
9:00am 8 9 mph 1018.6mb 45f
8:00am 8 9 mph 1018.3mb 44f
7:00am 14 15 mph 1017.9mb 43f
6:00am 13 14 mph 1017.5mb 43f
5:00am 13 14 mph 1017.3mb 44f
3:00am 13 14 mph 1016.6mb 45f
2:00am 13 14 mph 1016.4mb 45f
1:00am 14 15 mph 1015.9mb 46f
12:00am 10 14 mph 1015.1mb 44f
Wed 04/26 11:00pm 6 8 mph 1015.3mb 45f
10:00pm 9 13 mph 1014.6mb 46f
9:00pm 9 14 mph 1013.5mb 47f
8:00pm 13 15 mph 1012.7mb 47f
7:00pm 8 13 mph 1012.3mb 49f
6:00pm 8 11 mph 1012mb 49f
5:00pm 10 11 mph 1011.6mb 49f
4:00pm 10 11 mph 1011.3mb 49f
3:00pm 16 17 mph 1011.1mb 50f
2:00pm 21 22 mph 1010.6mb 49f
1:00pm 15 16 mph 1009.9mb 48f
12:00pm 18 20 mph 1009.4mb 51f
11:00am 16 17 mph 1009.5mb 49f
10:00am 11 15 mph 1009.2mb 49f
9:00am 18 21 mph 1008.8mb 49f
8:00am 22 25 mph 1008.4mb 49f
7:00am 24 26 mph 1007.8mb 49f
6:00am 25 28 mph 1007.9mb 49f
5:00am 22 25 mph 1008.5mb 49f
4:00am 25 31 mph 1008.5mb 49f
3:00am 23 26 mph 1008.4mb 50f
2:00am 25 26 mph 1008.1mb 50f
1:00am 24 25 mph 1007.9mb 50f
12:00am 18 20 mph 1007.8mb 50f
Tue 04/25 11:00pm 14
mph
1007.8mb 49f
10:00pm 8 9 mph 1008mb 49f
9:00pm 3
mph
1008.1mb 50f
8:00pm 6 7 mph 1008.7mb 51f
7:00pm 8 9 mph 1009.1mb 51f
6:00pm 5
mph
1009.6mb 52f
5:00pm 5 6 mph 1010.4mb 52f
4:00pm 9 10 mph 1011.5mb 51f
3:00pm 11 13 mph 1012.4mb 51f
2:00pm 13 14 mph 1012.9mb 51f
1:00pm 11 13 mph 1013.5mb 51f
12:00pm 16 18 mph 1014.1mb 51f
11:00am 14 16 mph 1014mb 50f
10:00am 16 17 mph 1014.1mb 49f
9:00am 18 20 mph 1014.1mb 49f
8:00am 21 22 mph 1015mb 48f
7:00am 17 20 mph 1014.7mb 48f
6:00am 18 21 mph 1013.9mb 48f
5:00am 18 22 mph 1013.9mb 48f
4:00am 20 21 mph 1014.1mb 48f
3:00am 18 20 mph 1014.2mb 49f
2:00am 14 15 mph 1013.9mb 49f
1:00am 14 15 mph 1013.7mb 49f
12:00am 14 15 mph 1013.3mb 50f
Mon 04/24 11:00pm 11 13 mph 1013mb 50f
10:00pm 15
mph
1011.9mb 50f
9:00pm 8 9 mph 1011.5mb 51f
8:00pm 1 2 mph 1010.2mb 51f
7:00pm 9 10 mph 1009.1mb 52f
6:00pm 13 14 mph 1008.5mb 52f
5:00pm 17 18 mph 1007.8mb 51f
4:00pm 18 20 mph 1007.5mb 51f
3:00pm 13 14 mph 1007.3mb 52f
2:00pm 10 11 mph 1007.1mb 50f
1:00pm 5 6 mph 1007mb 50f
12:00pm 5 6 mph 1006.9mb 49f
11:00am 6 7 mph 1006.7mb 48f
10:00am 6
mph
1006.7mb 47f
9:00am 3
mph
1006.8mb 47f
8:00am 3 5 mph 1006.8mb 46f
7:00am 5 6 mph 1006.8mb 46f
6:00am 7 9 mph 1007mb 46f
5:00am 13
mph
1007.3mb 47f
4:00am 14 15 mph 1007.5mb 47f
3:00am 15 17 mph 1007.6mb 47f
2:00am 18 20 mph 1008.1mb 48f
1:00am 18 21 mph 1008.5mb 48f
12:00am 13 14 mph 1009mb 48f
Sun 04/23 11:00pm 16 17 mph 1009.3mb 48f
10:00pm 21 22 mph 1009.5mb 49f
9:00pm 20 22 mph 1009.5mb 49f
8:00pm 21 22 mph 1009.5mb 49f